createdAt,value
2023-01-31T00:01:40.199Z,92.72
2023-01-31T00:04:12.624Z,92.07
2023-01-31T00:06:42.555Z,91.88
2023-01-31T00:09:12.009Z,92.15
2023-01-31T00:11:39.290Z,92.36
2023-01-31T00:14:07.787Z,92.47
2023-01-31T00:16:35.089Z,92.44
2023-01-31T00:19:02.751Z,91.67
2023-01-31T00:21:30.881Z,92.14
2023-01-31T00:23:59.172Z,92.03
2023-01-31T00:26:31.888Z,92.19
2023-01-31T00:29:01.597Z,91.86
2023-01-31T00:31:30.925Z,92.11
2023-01-31T00:33:58.464Z,91.53
2023-01-31T00:36:28.208Z,91.54
2023-01-31T00:38:57.772Z,91.63
2023-01-31T00:41:26.101Z,91.38
2023-01-31T00:43:53.084Z,90.95
2023-01-31T00:46:23.981Z,91.03
2023-01-31T00:48:51.116Z,90.92
2023-01-31T00:51:19.581Z,90.60
2023-01-31T00:53:47.463Z,90.68
2023-01-31T00:56:16.934Z,90.14
2023-01-31T00:58:44.153Z,89.90
2023-01-31T01:01:14.113Z,89.88
2023-01-31T01:03:43.231Z,89.78
2023-01-31T01:06:10.909Z,89.40
2023-01-31T01:08:39.619Z,89.84
2023-01-31T01:11:32.069Z,89.70
2023-01-31T01:14:00.801Z,89.99
2023-01-31T01:16:38.087Z,89.66
2023-01-31T01:19:07.954Z,89.99
2023-01-31T01:21:41.260Z,89.92
2023-01-31T01:24:14.950Z,89.72
2023-01-31T01:26:42.891Z,89.88
2023-01-31T01:29:10.189Z,89.90
2023-01-31T01:31:38.487Z,90.59
2023-01-31T01:34:16.448Z,90.65
2023-01-31T01:36:45.553Z,91.07
2023-01-31T01:39:16.861Z,91.13
2023-01-31T01:41:44.735Z,90.92
2023-01-31T01:44:48.990Z,90.85
2023-01-31T01:47:26.364Z,91.49
2023-01-31T01:50:16.766Z,91.00
2023-01-31T01:52:51.235Z,91.41
2023-01-31T01:55:29.284Z,91.28
2023-01-31T01:58:20.828Z,91.26
2023-01-31T02:00:50.045Z,91.48
2023-01-31T02:03:18.439Z,91.41
2023-01-31T02:05:54.107Z,91.09
2023-01-31T02:08:23.949Z,91.70
2023-01-31T02:10:57.489Z,91.72
2023-01-31T02:13:25.236Z,91.39
2023-01-31T02:15:52.151Z,91.15
2023-01-31T02:18:22.067Z,91.14
2023-01-31T02:21:19.988Z,90.81
2023-01-31T02:24:16.432Z,90.68
2023-01-31T02:27:20.908Z,89.96
2023-01-31T02:30:38.473Z,89.23
2023-01-31T02:33:21.776Z,89.09
2023-01-31T02:36:10.261Z,88.82
2023-01-31T02:39:12.599Z,88.56
2023-01-31T02:42:12.544Z,88.69
2023-01-31T02:45:09.740Z,88.12
2023-01-31T02:47:49.005Z,88.49
2023-01-31T02:50:27.087Z,88.06
2023-01-31T02:53:03.736Z,88.21
2023-01-31T02:55:58.477Z,88.08
2023-01-31T02:58:31.248Z,88.81
2023-01-31T03:01:00.904Z,88.51
2023-01-31T03:03:38.082Z,88.82
2023-01-31T03:06:29.904Z,89.01
2023-01-31T03:09:22.126Z,88.98
2023-01-31T03:27:52.805Z,96.86
2023-01-31T03:30:27.765Z,97.34
2023-01-31T03:33:00.855Z,96.27
2023-01-31T03:35:31.763Z,95.63
2023-01-31T03:38:17.857Z,94.95
2023-01-31T03:41:08.357Z,94.11
2023-01-31T03:43:44.831Z,93.51
2023-01-31T03:46:17.922Z,92.96
2023-01-31T03:48:48.854Z,92.92
2023-01-31T03:51:23.313Z,92.71
2023-01-31T03:53:55.044Z,92.27
2023-01-31T03:56:28.361Z,91.78
2023-01-31T03:59:06.152Z,91.08
2023-01-31T04:01:37.097Z,91.76
2023-01-31T04:04:09.326Z,91.07
2023-01-31T04:06:37.077Z,90.72
2023-01-31T04:09:06.761Z,90.64
2023-01-31T04:11:39.084Z,90.17
2023-01-31T04:14:06.368Z,89.54
2023-01-31T04:16:33.568Z,90.36
2023-01-31T04:19:00.420Z,90.15
2023-01-31T04:21:27.375Z,89.73
2023-01-31T04:23:54.231Z,89.60
2023-01-31T04:26:21.179Z,89.25
2023-01-31T04:28:47.994Z,88.73
2023-01-31T04:31:14.966Z,88.55
2023-01-31T04:33:41.826Z,88.39
2023-01-31T04:36:09.252Z,88.93
2023-01-31T04:38:36.506Z,89.17
2023-01-31T04:41:03.548Z,89.19
2023-01-31T04:43:30.432Z,88.82
2023-01-31T04:45:57.250Z,89.26
2023-01-31T04:48:24.054Z,89.90
2023-01-31T04:50:50.948Z,90.02
2023-01-31T04:53:17.820Z,90.63
2023-01-31T04:55:44.762Z,90.84
2023-01-31T04:58:11.931Z,91.20
2023-01-31T05:00:38.834Z,91.94
2023-01-31T05:03:06.236Z,92.79
2023-01-31T05:05:35.974Z,92.88
2023-01-31T05:08:03.340Z,93.49
2023-01-31T05:10:30.309Z,94.39
2023-01-31T05:12:57.152Z,94.78
2023-01-31T05:18:26.449Z,95.80
2023-01-31T05:20:53.341Z,95.80
2023-01-31T05:23:20.433Z,96.14
2023-01-31T05:25:49.953Z,96.66
2023-01-31T05:28:17.277Z,97.22
2023-01-31T05:30:44.688Z,97.04
2023-01-31T05:33:12.115Z,96.96
2023-01-31T05:35:39.641Z,96.90
2023-01-31T05:38:06.922Z,96.82
2023-01-31T05:40:34.025Z,96.63
2023-01-31T05:43:01.843Z,97.09
2023-01-31T05:45:29.300Z,96.74
2023-01-31T05:47:56.932Z,97.36
2023-01-31T05:50:24.018Z,97.49
2023-01-31T05:52:55.346Z,97.54
2023-01-31T05:55:23.074Z,97.38
2023-01-31T05:57:50.009Z,97.30
2023-01-31T06:00:17.276Z,96.99
2023-01-31T06:02:44.132Z,97.11
2023-01-31T06:05:11.583Z,97.47
2023-01-31T06:07:39.312Z,96.89
2023-01-31T06:10:08.117Z,97.75
2023-01-31T06:12:35.648Z,97.74
2023-01-31T06:15:03.188Z,97.71
2023-01-31T06:17:31.239Z,97.66
2023-01-31T06:19:58.183Z,97.87
2023-01-31T06:22:25.134Z,98.02
2023-01-31T06:24:52.012Z,98.27
2023-01-31T06:27:18.848Z,98.28
2023-01-31T06:29:45.685Z,98.66
2023-01-31T06:32:12.553Z,99.26
2023-01-31T06:34:39.414Z,99.67
2023-01-31T06:37:09.695Z,99.54
2023-01-31T06:39:36.928Z,99.00
2023-01-31T06:42:04.263Z,98.11
2023-01-31T06:44:33.305Z,98.24
2023-01-31T06:47:01.615Z,98.12
2023-01-31T06:49:28.615Z,97.64
2023-01-31T06:51:55.672Z,97.87
2023-01-31T06:54:22.602Z,98.10
2023-01-31T06:56:49.604Z,97.66
2023-01-31T06:59:16.545Z,97.18
2023-01-31T07:01:43.428Z,97.52
2023-01-31T07:04:10.407Z,97.60
2023-01-31T07:06:37.262Z,97.06
2023-01-31T07:09:04.542Z,96.79
2023-01-31T07:11:31.539Z,97.37
2023-01-31T07:13:58.659Z,96.34
2023-01-31T07:16:26.204Z,96.45
2023-01-31T07:18:54.246Z,95.91
2023-01-31T07:21:22.482Z,96.34
2023-01-31T07:23:49.681Z,96.34
2023-01-31T07:26:17.083Z,96.17
2023-01-31T07:28:44.121Z,96.45
2023-01-31T07:31:13.247Z,96.18
2023-01-31T07:33:40.588Z,96.47
2023-01-31T07:36:08.724Z,96.72
2023-01-31T07:38:35.794Z,96.75
2023-01-31T07:41:04.565Z,96.66
2023-01-31T07:43:32.529Z,96.24
2023-01-31T07:45:59.502Z,96.53
2023-01-31T07:48:26.670Z,96.11
2023-01-31T07:51:01.672Z,96.25
2023-01-31T07:53:32.264Z,96.29
2023-01-31T07:56:14.484Z,96.21
2023-01-31T07:58:42.735Z,95.74
2023-01-31T08:01:38.784Z,95.03
2023-01-31T08:04:19.960Z,97.03
2023-01-31T08:06:49.052Z,95.84
2023-01-31T08:09:16.046Z,95.07
2023-01-31T08:11:43.087Z,94.36
2023-01-31T08:14:10.113Z,94.26
2023-01-31T08:16:37.665Z,93.72
2023-01-31T08:19:04.763Z,94.02
2023-01-31T08:21:31.759Z,93.57
2023-01-31T08:23:58.695Z,93.24
2023-01-31T08:26:25.604Z,92.89
2023-01-31T08:28:54.097Z,93.38
2023-01-31T08:31:23.406Z,92.52
2023-01-31T08:33:53.092Z,93.63
2023-01-31T08:36:24.431Z,91.88
2023-01-31T08:38:51.594Z,91.84
2023-01-31T08:41:20.522Z,91.60
2023-01-31T08:43:58.346Z,91.37
2023-01-31T08:46:31.320Z,89.47
2023-01-31T08:48:59.293Z,87.04
2023-01-31T08:51:26.513Z,87.34
2023-01-31T08:53:54.202Z,85.79
2023-01-31T08:56:25.478Z,86.02
2023-01-31T08:58:53.351Z,83.83
2023-01-31T09:01:21.647Z,83.00
2023-01-31T09:03:50.512Z,81.15
2023-01-31T09:06:20.024Z,79.69
2023-01-31T09:08:47.276Z,79.43
2023-01-31T09:11:19.720Z,78.02
2023-01-31T09:13:52.064Z,78.11
2023-01-31T09:16:19.949Z,76.94
2023-01-31T09:18:47.650Z,75.08
2023-01-31T09:21:17.944Z,71.55
2023-01-31T09:23:45.516Z,72.16
2023-01-31T09:26:13.617Z,70.91
2023-01-31T09:28:42.990Z,70.86
2023-01-31T09:31:13.131Z,71.81
2023-01-31T09:33:40.540Z,70.18
2023-01-31T09:36:10.409Z,70.84
2023-01-31T09:38:37.625Z,69.22
2023-01-31T09:41:14.277Z,69.59
2023-01-31T09:43:47.295Z,71.38
2023-01-31T09:46:19.517Z,71.92
2023-01-31T09:48:51.014Z,69.84
2023-01-31T09:51:18.979Z,70.22
2023-01-31T09:53:47.037Z,70.20
2023-01-31T09:56:46.319Z,69.61
2023-01-31T09:59:30.808Z,69.31
2023-01-31T10:02:34.298Z,69.09
2023-01-31T10:05:44.017Z,68.29
2023-01-31T10:08:22.925Z,67.79
2023-01-31T10:10:57.394Z,66.81
2023-01-31T10:13:31.897Z,68.11
2023-01-31T10:16:26.506Z,68.94
2023-01-31T10:19:02.706Z,67.52
2023-01-31T10:21:36.996Z,67.40
2023-01-31T10:24:14.571Z,68.92
2023-01-31T10:26:44.060Z,68.13
2023-01-31T10:29:29.793Z,66.93
2023-01-31T10:32:01.190Z,66.46
2023-01-31T10:34:39.028Z,66.42
2023-01-31T10:37:14.150Z,66.24
2023-01-31T10:39:46.711Z,66.32
2023-01-31T10:42:32.426Z,67.26
2023-01-31T10:45:21.813Z,67.57
2023-01-31T10:47:54.139Z,68.21
2023-01-31T10:50:55.003Z,69.10
2023-01-31T10:54:14.141Z,70.20
2023-01-31T10:56:46.764Z,69.18
2023-01-31T10:59:26.398Z,69.52
2023-01-31T11:01:53.778Z,69.01
2023-01-31T11:04:30.384Z,69.02
2023-01-31T11:07:00.132Z,68.68
2023-01-31T11:09:32.457Z,68.37
2023-01-31T11:12:03.879Z,68.16
2023-01-31T11:14:31.628Z,66.26
2023-01-31T11:17:24.223Z,67.02
2023-01-31T11:19:57.869Z,68.49
2023-01-31T11:22:32.132Z,67.43
2023-01-31T11:25:01.993Z,66.59
2023-01-31T11:27:38.713Z,67.20
2023-01-31T11:30:07.513Z,65.71
2023-01-31T11:32:37.617Z,65.13
2023-01-31T11:35:25.381Z,65.31
2023-01-31T11:37:58.793Z,67.64
2023-01-31T11:40:30.725Z,68.04
2023-01-31T11:43:06.203Z,66.39
2023-01-31T11:45:40.531Z,66.92
2023-01-31T11:48:22.398Z,67.85
2023-01-31T11:50:55.815Z,70.00
2023-01-31T11:53:31.104Z,69.46
2023-01-31T11:56:16.217Z,71.02
2023-01-31T11:58:46.199Z,69.40
2023-01-31T12:01:14.871Z,71.17
2023-01-31T12:04:01.972Z,71.56
2023-01-31T12:06:39.413Z,70.99
2023-01-31T12:12:34.808Z,71.05
2023-01-31T12:15:05.824Z,71.53
2023-01-31T12:17:42.951Z,70.94
2023-01-31T12:20:36.397Z,70.48
2023-01-31T12:23:27.674Z,70.08
2023-01-31T12:26:13.342Z,70.39
2023-01-31T12:29:12.053Z,69.67
2023-01-31T12:31:48.059Z,70.33
2023-01-31T12:34:21.634Z,70.49
2023-01-31T12:37:09.861Z,70.03
2023-01-31T12:40:24.733Z,71.74
2023-01-31T12:43:02.759Z,72.81
2023-01-31T12:45:39.046Z,71.98
2023-01-31T12:48:12.450Z,72.01
2023-01-31T12:50:48.215Z,71.88
2023-01-31T12:53:51.111Z,71.72
2023-01-31T12:56:43.487Z,72.26
2023-01-31T12:59:32.035Z,72.49
2023-01-31T13:02:08.108Z,72.98
2023-01-31T13:04:54.534Z,73.14
2023-01-31T13:07:35.894Z,73.23
2023-01-31T13:10:07.328Z,73.74
2023-01-31T13:12:36.793Z,73.23
2023-01-31T13:15:26.427Z,73.84
2023-01-31T13:18:01.246Z,74.11
2023-01-31T13:20:36.438Z,74.68
2023-01-31T13:23:11.681Z,74.44
2023-01-31T13:25:50.732Z,74.57
2023-01-31T13:28:17.591Z,74.57
2023-01-31T13:31:08.778Z,75.74
2023-01-31T13:33:41.165Z,75.39
2023-01-31T13:36:38.415Z,76.25
2023-01-31T13:39:30.841Z,76.31
2023-01-31T13:41:58.453Z,76.45
2023-01-31T13:44:25.374Z,75.64
2023-01-31T13:47:01.294Z,76.12
2023-01-31T13:49:31.293Z,76.45
2023-01-31T13:52:02.344Z,76.49
2023-01-31T13:54:37.614Z,76.74
2023-01-31T13:57:06.273Z,77.60
2023-01-31T13:59:37.876Z,77.50
2023-01-31T14:02:17.196Z,78.23
2023-01-31T14:04:47.167Z,77.53
2023-01-31T14:07:17.224Z,77.56
2023-01-31T14:09:50.159Z,77.85
2023-01-31T14:12:17.259Z,78.02
2023-01-31T14:14:46.617Z,78.20
2023-01-31T14:17:23.949Z,78.27
2023-01-31T14:19:50.734Z,78.30
2023-01-31T14:22:22.121Z,78.57
2023-01-31T14:24:56.775Z,79.20
2023-01-31T14:27:24.987Z,78.92
2023-01-31T14:30:18.053Z,79.37
2023-01-31T14:33:08.157Z,79.52
2023-01-31T14:35:58.389Z,79.65
2023-01-31T14:38:31.321Z,80.91
2023-01-31T14:41:07.819Z,80.68
2023-01-31T14:43:49.862Z,81.36
2023-01-31T14:46:28.111Z,81.89
2023-01-31T14:49:27.185Z,82.85
2023-01-31T14:52:12.704Z,83.56
2023-01-31T14:55:04.088Z,83.65
2023-01-31T14:57:43.197Z,84.07
2023-01-31T15:00:19.370Z,84.33
2023-01-31T15:03:02.026Z,85.67
2023-01-31T15:05:31.992Z,86.25
2023-01-31T15:08:07.417Z,86.28
2023-01-31T15:10:54.255Z,87.18
2023-01-31T15:13:44.348Z,87.71
2023-01-31T15:30:03.066Z,91.72
2023-01-31T15:32:43.619Z,91.36
2023-01-31T15:35:24.955Z,90.69
2023-01-31T15:38:30.143Z,90.65
2023-01-31T15:41:06.315Z,90.52
2023-01-31T15:43:33.534Z,90.21
2023-01-31T15:46:13.410Z,90.69
2023-01-31T15:48:43.403Z,90.66
2023-01-31T15:54:08.522Z,91.28
2023-01-31T15:56:39.401Z,91.52
2023-01-31T15:59:13.121Z,91.76
2023-01-31T16:01:40.332Z,91.77
2023-01-31T16:04:07.702Z,91.51
2023-01-31T16:06:38.590Z,92.00
2023-01-31T16:09:07.245Z,91.84
2023-01-31T16:11:36.113Z,91.42
2023-01-31T16:14:06.056Z,91.15
2023-01-31T16:16:35.457Z,91.85
2023-01-31T16:19:03.931Z,91.79
2023-01-31T16:21:42.824Z,92.27
2023-01-31T16:24:20.722Z,92.15
2023-01-31T16:27:15.453Z,92.43
2023-01-31T16:29:46.742Z,92.62
2023-01-31T16:32:22.524Z,93.49
2023-01-31T16:35:33.804Z,92.97
2023-01-31T16:38:08.027Z,93.28
2023-01-31T16:40:37.549Z,93.71
2023-01-31T16:43:21.460Z,93.50
2023-01-31T16:45:55.630Z,93.43
2023-01-31T16:48:22.450Z,93.15
2023-01-31T16:50:53.010Z,93.34
2023-01-31T16:53:28.653Z,93.18
2023-01-31T16:56:14.005Z,92.95
2023-01-31T16:58:57.643Z,93.04
2023-01-31T17:01:34.597Z,93.24
2023-01-31T17:04:09.209Z,92.83
2023-01-31T17:06:37.408Z,93.26
2023-01-31T17:09:06.893Z,93.06
2023-01-31T17:11:42.773Z,93.81
2023-01-31T17:14:10.795Z,93.40
2023-01-31T17:16:37.794Z,93.84
2023-01-31T17:19:04.645Z,94.16
2023-01-31T17:21:37.840Z,93.92
2023-01-31T17:24:04.950Z,94.39
2023-01-31T17:26:31.896Z,94.22
2023-01-31T17:29:02.136Z,94.32
2023-01-31T17:31:31.432Z,94.87
2023-01-31T17:33:58.605Z,94.87
2023-01-31T17:36:25.439Z,95.36
2023-01-31T17:38:53.489Z,95.86
2023-01-31T17:41:24.705Z,95.94
2023-01-31T17:43:51.939Z,96.05
2023-01-31T17:46:19.418Z,96.03
2023-01-31T17:48:46.367Z,96.30
2023-01-31T17:51:13.427Z,96.58
2023-01-31T17:53:49.451Z,96.65
2023-01-31T17:56:18.719Z,96.72
2023-01-31T17:58:45.830Z,96.05
2023-01-31T18:01:14.412Z,95.74
2023-01-31T18:03:42.442Z,95.94
2023-01-31T18:06:10.156Z,96.91
2023-01-31T18:08:37.583Z,96.48
2023-01-31T18:11:10.800Z,96.05
2023-01-31T18:13:38.471Z,96.41
2023-01-31T18:16:14.879Z,96.63
2023-01-31T18:18:44.258Z,95.99
2023-01-31T18:21:16.196Z,96.11
2023-01-31T18:23:43.225Z,95.90
2023-01-31T18:26:11.241Z,96.03
2023-01-31T18:28:38.103Z,95.47
2023-01-31T18:31:10.582Z,95.39
2023-01-31T18:33:38.244Z,95.44
2023-01-31T18:36:06.111Z,94.87
2023-01-31T18:38:33.016Z,94.22
2023-01-31T18:41:02.750Z,94.66
2023-01-31T18:43:29.937Z,93.74
2023-01-31T18:45:56.810Z,93.06
2023-01-31T18:48:24.301Z,92.73
2023-01-31T18:50:51.250Z,92.39
2023-01-31T18:53:18.178Z,91.25
2023-01-31T18:55:44.951Z,91.50
2023-01-31T18:58:11.924Z,91.21
2023-01-31T19:00:38.809Z,90.97
2023-01-31T19:03:05.701Z,90.70
2023-01-31T19:05:32.519Z,90.51
2023-01-31T19:07:59.411Z,90.80
2023-01-31T19:10:26.327Z,90.62
2023-01-31T19:12:53.185Z,90.60
2023-01-31T19:15:20.353Z,90.79
2023-01-31T19:17:47.244Z,90.79
2023-01-31T19:20:14.178Z,90.04
2023-01-31T19:22:41.021Z,90.58
2023-01-31T19:25:10.008Z,90.49
2023-01-31T19:27:36.849Z,90.87
2023-01-31T19:30:04.112Z,90.86
2023-01-31T19:32:31.386Z,90.83
2023-01-31T19:34:58.250Z,92.72
2023-01-31T19:37:25.192Z,93.03
2023-01-31T19:39:52.065Z,94.39
2023-01-31T19:42:19.027Z,94.94
2023-01-31T19:44:45.936Z,95.88
2023-01-31T19:47:12.797Z,96.04
2023-01-31T19:49:39.671Z,96.28
2023-01-31T19:52:06.533Z,95.88
2023-01-31T19:54:33.401Z,96.12
2023-01-31T19:57:00.283Z,96.11
2023-01-31T19:59:27.242Z,95.74
2023-01-31T20:01:54.242Z,95.23
2023-01-31T20:04:21.161Z,95.47
2023-01-31T20:06:49.468Z,95.20
2023-01-31T20:09:20.303Z,95.18
2023-01-31T20:11:47.323Z,95.26
2023-01-31T20:14:14.288Z,95.40
2023-01-31T20:16:41.159Z,95.16
2023-01-31T20:19:08.355Z,95.23
2023-01-31T20:21:35.411Z,95.07
2023-01-31T20:24:02.542Z,95.01
2023-01-31T20:26:30.007Z,94.47
2023-01-31T20:31:59.278Z,94.12
2023-01-31T20:34:26.310Z,93.86
2023-01-31T20:36:53.138Z,93.70
2023-01-31T20:39:19.985Z,92.71
2023-01-31T20:41:46.839Z,91.63
2023-01-31T20:44:13.708Z,89.55
2023-01-31T20:46:41.837Z,88.54
2023-01-31T20:49:08.937Z,88.26
2023-01-31T20:51:35.923Z,87.98
2023-01-31T20:54:03.967Z,88.03
2023-01-31T20:56:30.851Z,87.62
2023-01-31T20:58:57.821Z,86.50
2023-01-31T21:01:25.091Z,85.91
2023-01-31T21:03:52.101Z,86.31
2023-01-31T21:06:18.994Z,85.23
2023-01-31T21:08:48.356Z,84.75
2023-01-31T21:11:15.579Z,84.64
2023-01-31T21:13:44.037Z,84.13
2023-01-31T21:16:12.219Z,83.22
2023-01-31T21:18:40.318Z,82.24
2023-01-31T21:21:09.612Z,81.96
2023-01-31T21:23:38.472Z,81.84
2023-01-31T21:26:08.276Z,81.12
2023-01-31T21:28:35.622Z,80.66
2023-01-31T21:31:06.375Z,79.75
2023-01-31T21:33:33.394Z,81.25
2023-01-31T21:36:07.325Z,79.50
2023-01-31T21:38:34.328Z,78.87
2023-01-31T21:41:19.993Z,78.57
2023-01-31T21:43:46.943Z,78.10
2023-01-31T21:46:15.108Z,77.39
2023-01-31T21:48:42.323Z,77.87
2023-01-31T21:51:11.810Z,77.12
2023-01-31T21:53:39.596Z,77.54
2023-01-31T21:56:12.895Z,77.25
2023-01-31T21:58:41.382Z,76.76
2023-01-31T22:01:12.450Z,76.43
2023-01-31T22:03:44.368Z,75.97
2023-01-31T22:06:14.026Z,76.56
2023-01-31T22:08:41.383Z,75.84
2023-01-31T22:11:13.895Z,76.22
2023-01-31T22:13:49.607Z,75.64
2023-01-31T22:16:20.788Z,76.75
2023-01-31T22:18:48.728Z,76.43
2023-01-31T22:21:21.135Z,76.59
2023-01-31T22:23:50.453Z,76.19
2023-01-31T22:26:24.279Z,76.64
2023-01-31T22:28:52.006Z,76.66
2023-01-31T22:31:19.422Z,76.92
2023-01-31T22:33:46.655Z,77.29
2023-01-31T22:36:15.001Z,76.67
2023-01-31T22:38:42.689Z,77.25
2023-01-31T22:41:12.170Z,77.20
2023-01-31T22:43:41.364Z,77.27
2023-01-31T22:46:11.227Z,77.13
2023-01-31T22:48:38.200Z,77.20
2023-01-31T22:51:10.150Z,77.64
2023-01-31T22:53:38.412Z,77.23
2023-01-31T22:56:08.170Z,76.82
2023-01-31T22:58:35.081Z,76.69
2023-01-31T23:01:02.281Z,77.38
2023-01-31T23:03:29.214Z,76.26
2023-01-31T23:05:56.130Z,77.14
2023-01-31T23:08:23.107Z,76.51
2023-01-31T23:10:49.892Z,76.56
2023-01-31T23:13:16.779Z,76.12
2023-01-31T23:15:43.750Z,76.08
2023-01-31T23:18:16.084Z,75.00
2023-01-31T23:20:43.149Z,75.26
2023-01-31T23:23:10.082Z,75.27
2023-01-31T23:25:36.984Z,74.87
2023-01-31T23:28:03.907Z,75.09
2023-01-31T23:30:30.892Z,74.68
2023-01-31T23:32:57.899Z,74.85
2023-01-31T23:35:25.028Z,74.17
2023-01-31T23:37:52.037Z,75.16
2023-01-31T23:40:19.147Z,74.66
2023-01-31T23:42:46.176Z,75.02
2023-01-31T23:45:13.040Z,74.18
2023-01-31T23:47:43.332Z,74.39
2023-01-31T23:50:11.228Z,73.42
2023-01-31T23:52:38.730Z,73.65
2023-01-31T23:55:06.326Z,73.66
2023-01-31T23:57:33.252Z,72.87
